Pagrindinis puslapis
METAR-TAF:

METAR-TAF

Oro uostai :

San Angelo Regional Airport (Mathis Field)

San Angelo, Teksasas, Jungtinės Amerikos Valstijos

platuma: 31-21-05N, ilguma: 100-29-38W, Aukštis: 584 m

Dabartinis oras

Ataskaita buvo paskelbta 13 minutes, ne 22:51 UTC
Vėjas 11 kt iš Rytų su gūsio iki 19 kt
Temperatūra 31°C
Drėgmė 31%
Slėgis 1018 hPa
Matomumas: 16.1 km
Giedras dangus

METAR: KSJT 302251Z 09011G19KT 10SM CLR 31/12 A3006 RMK AO2 SLP160 T03110122

Laikas: 18:04 (23:04 UTC)

Prognozė

Ataskaita buvo paskelbta 5 valandos ir 30 minutes, ne 17:34 UTC
Prognozė galioja nuo 30 metu 18 UTC su 31 metu 18 UTC
Vėjas 8 kt iš Rytų
Matomumas: 10 km
Mažai debesys ne aukštis 25000 ft
Nuo 31 metu 0700 UTC
Vėjas 3 kt iš Rytų
Matomumas: 10 km
Išsisklaidę debesys ne aukštis 25000 ft

TAF: KSJT 301734Z 3018/3118 09008KT P6SM FEW250 FM310700 08003KT P6SM SCT250

Orai ataskaitas ir orų prognozės (METAR, TAF).

turimą stotys yra geltonos ir raudonos taškus žemėlapyje.

Perkelti pele per norėdami pamatyti stoties vardą.

Tada spustelėkite, norėdami matyti oro stebėjimo ir prognozės.

Norėdami pakeisti žemėlapį: spustelėkite ant žalios mygtukų su juodo kryžiaus žemyn,; žalią mygtuką su brūkšneliu, jei norite nutolinti; arba žalių rodyklių gretimoms žemėlapius.


METAR-TAF: